createdAt,value
2022-12-25T00:01:47.842Z,9.79
2022-12-25T00:04:33.023Z,9.12
2022-12-25T00:07:17.945Z,8.63
2022-12-25T00:10:02.603Z,8.21
2022-12-25T00:12:47.420Z,7.80
2022-12-25T00:15:32.147Z,7.52
2022-12-25T00:18:16.961Z,7.27
2022-12-25T00:21:01.666Z,7.19
2022-12-25T00:23:46.354Z,7.09
2022-12-25T00:26:30.995Z,6.79
2022-12-25T00:29:15.710Z,6.61
2022-12-25T00:32:00.482Z,6.48
2022-12-25T00:34:45.675Z,6.27
2022-12-25T00:37:30.416Z,6.30
2022-12-25T00:40:15.213Z,6.34
2022-12-25T00:42:59.990Z,6.21
2022-12-25T00:45:44.783Z,6.00
2022-12-25T00:48:29.553Z,5.93
2022-12-25T00:51:14.265Z,5.84
2022-12-25T00:53:59.125Z,5.88
2022-12-25T00:56:43.817Z,5.93
2022-12-25T00:59:29.775Z,6.00
2022-12-25T01:02:14.489Z,5.97
2022-12-25T01:04:59.612Z,6.02
2022-12-25T01:07:44.491Z,6.14
2022-12-25T01:10:29.130Z,6.23
2022-12-25T01:13:13.823Z,6.31
2022-12-25T01:15:58.492Z,6.42
2022-12-25T01:18:43.416Z,6.77
2022-12-25T01:21:28.065Z,7.39
2022-12-25T01:24:12.833Z,8.63
2022-12-25T01:26:57.528Z,8.36
2022-12-25T01:29:42.241Z,7.92
2022-12-25T01:32:26.970Z,7.69
2022-12-25T01:35:11.919Z,9.60
2022-12-25T01:37:56.732Z,10.48
2022-12-25T01:40:41.679Z,11.34
2022-12-25T01:43:26.566Z,11.43
2022-12-25T01:46:11.324Z,10.60
2022-12-25T01:48:56.101Z,9.67
2022-12-25T01:51:40.736Z,8.85
2022-12-25T01:54:25.573Z,8.48
2022-12-25T01:57:10.195Z,8.61
2022-12-25T01:59:55.132Z,9.77
2022-12-25T02:02:40.169Z,9.19
2022-12-25T02:05:25.341Z,8.70
2022-12-25T02:08:10.306Z,8.30
2022-12-25T02:10:54.993Z,8.94
2022-12-25T02:13:39.764Z,10.35
2022-12-25T02:16:24.439Z,11.72
2022-12-25T02:19:09.473Z,11.57
2022-12-25T02:21:54.225Z,12.66
2022-12-25T02:24:39.092Z,14.04
2022-12-25T02:27:23.759Z,14.58
2022-12-25T02:30:08.529Z,14.88
2022-12-25T02:32:53.308Z,14.35
2022-12-25T02:35:39.053Z,15.24
2022-12-25T02:38:24.496Z,14.08
2022-12-25T02:41:09.238Z,12.94
2022-12-25T02:43:53.954Z,11.81
2022-12-25T02:46:38.657Z,10.87
2022-12-25T02:49:23.362Z,10.02
2022-12-25T02:52:08.070Z,9.34
2022-12-25T02:54:52.912Z,8.93
2022-12-25T02:57:37.876Z,8.64
2022-12-25T03:00:23.250Z,8.17
2022-12-25T03:03:08.169Z,7.74
2022-12-25T03:05:53.294Z,7.61
2022-12-25T03:08:38.307Z,7.47
2022-12-25T03:11:22.950Z,7.32
2022-12-25T03:14:07.778Z,6.99
2022-12-25T03:16:52.600Z,6.90
2022-12-25T03:19:37.487Z,6.82
2022-12-25T03:22:22.185Z,6.93
2022-12-25T03:25:06.935Z,6.94
2022-12-25T03:27:51.803Z,6.99
2022-12-25T03:30:36.734Z,7.06
2022-12-25T03:33:43.887Z,7.05
2022-12-25T03:36:26.951Z,6.76
2022-12-25T03:39:11.707Z,6.57
2022-12-25T03:41:56.560Z,6.57
2022-12-25T03:44:41.259Z,6.74
2022-12-25T03:47:26.086Z,6.83
2022-12-25T03:50:10.870Z,6.78
2022-12-25T03:52:55.765Z,6.75
2022-12-25T03:55:40.342Z,6.76
2022-12-25T03:58:25.169Z,6.89
2022-12-25T04:01:10.067Z,6.96
2022-12-25T04:03:54.824Z,6.94
2022-12-25T04:06:39.588Z,6.95
2022-12-25T04:09:24.354Z,6.98
2022-12-25T04:12:08.968Z,7.07
2022-12-25T04:14:54.332Z,7.15
2022-12-25T04:17:39.130Z,7.07
2022-12-25T04:20:23.703Z,7.06
2022-12-25T04:23:08.422Z,6.99
2022-12-25T04:25:53.116Z,6.95
2022-12-25T04:28:38.318Z,6.75
2022-12-25T04:31:24.183Z,6.83
2022-12-25T04:34:09.278Z,6.86
2022-12-25T04:36:54.089Z,6.72
2022-12-25T04:39:38.820Z,6.73
2022-12-25T04:42:24.661Z,6.68
2022-12-25T04:45:09.350Z,6.65
2022-12-25T04:47:54.163Z,6.51
2022-12-25T04:50:39.056Z,6.57
2022-12-25T04:53:23.822Z,6.71
2022-12-25T04:56:08.717Z,6.82
2022-12-25T04:58:53.410Z,6.80
2022-12-25T05:01:38.172Z,6.79
2022-12-25T05:04:23.367Z,6.99
2022-12-25T05:07:08.166Z,6.96
2022-12-25T05:09:52.868Z,6.92
2022-12-25T05:12:37.555Z,6.98
2022-12-25T05:15:22.399Z,6.98
2022-12-25T05:18:07.284Z,7.01
2022-12-25T05:20:52.022Z,6.99
2022-12-25T05:23:36.808Z,6.91
2022-12-25T05:26:21.681Z,6.97
2022-12-25T05:29:06.366Z,6.94
2022-12-25T05:31:51.261Z,6.91
2022-12-25T05:34:35.809Z,6.88
2022-12-25T05:37:20.638Z,6.92
2022-12-25T05:40:05.247Z,6.94
2022-12-25T05:42:49.924Z,6.91
2022-12-25T05:45:34.678Z,6.80
2022-12-25T05:48:19.403Z,6.62
2022-12-25T05:51:04.173Z,6.60
2022-12-25T05:53:48.935Z,6.63
2022-12-25T05:56:33.828Z,6.65
2022-12-25T05:59:18.650Z,6.55
2022-12-25T06:02:03.602Z,6.59
2022-12-25T06:04:48.778Z,6.58
2022-12-25T06:07:33.602Z,6.61
2022-12-25T06:10:18.369Z,6.56
2022-12-25T06:13:03.093Z,6.49
2022-12-25T06:15:47.750Z,6.55
2022-12-25T06:18:32.531Z,6.67
2022-12-25T06:21:17.341Z,6.73
2022-12-25T06:24:02.200Z,6.78
2022-12-25T06:26:47.397Z,6.82
2022-12-25T06:29:32.089Z,6.81
2022-12-25T06:32:16.997Z,6.88
2022-12-25T06:35:01.677Z,6.90
2022-12-25T06:37:46.545Z,6.77
2022-12-25T06:40:31.214Z,6.80
2022-12-25T06:43:16.074Z,6.88
2022-12-25T06:46:00.907Z,6.86
2022-12-25T06:48:45.697Z,6.82
2022-12-25T06:51:30.496Z,6.73
2022-12-25T06:54:15.276Z,6.79
2022-12-25T06:57:00.017Z,6.88
2022-12-25T06:59:48.434Z,6.85
2022-12-25T07:02:36.143Z,6.73
2022-12-25T07:05:21.393Z,6.78
2022-12-25T07:08:06.084Z,6.82
2022-12-25T07:10:50.842Z,6.76
2022-12-25T07:13:35.456Z,6.64
2022-12-25T07:16:20.344Z,6.73
2022-12-25T07:19:05.509Z,6.77
2022-12-25T07:21:50.239Z,6.76
2022-12-25T07:24:35.049Z,6.76
2022-12-25T07:27:19.703Z,6.73
2022-12-25T07:30:04.543Z,6.79
2022-12-25T07:32:50.338Z,6.78
2022-12-25T07:35:35.659Z,6.81
2022-12-25T07:38:20.253Z,6.88
2022-12-25T07:41:05.044Z,6.88
2022-12-25T07:43:49.805Z,7.00
2022-12-25T07:46:34.521Z,7.02
2022-12-25T07:49:19.291Z,7.07
2022-12-25T07:52:03.916Z,7.13
2022-12-25T07:54:48.696Z,7.15
2022-12-25T07:57:33.462Z,7.18
2022-12-25T08:00:18.416Z,7.22
2022-12-25T08:03:03.130Z,7.08
2022-12-25T08:05:48.381Z,7.16
2022-12-25T08:08:33.173Z,7.22
2022-12-25T08:11:17.864Z,7.22
2022-12-25T08:14:02.668Z,7.25
2022-12-25T08:16:47.558Z,7.50
2022-12-25T08:19:32.771Z,7.69
2022-12-25T08:22:17.511Z,7.86
2022-12-25T08:25:02.388Z,7.93
2022-12-25T08:27:47.033Z,8.05
2022-12-25T08:30:31.961Z,8.16
2022-12-25T08:33:16.548Z,8.23
2022-12-25T08:36:01.367Z,8.35
2022-12-25T08:38:46.122Z,8.54
2022-12-25T08:41:30.935Z,8.69
2022-12-25T08:44:15.725Z,8.78
2022-12-25T08:47:00.457Z,8.94
2022-12-25T08:49:45.301Z,9.03
2022-12-25T08:52:30.577Z,9.07
2022-12-25T08:55:15.356Z,9.19
2022-12-25T08:58:00.121Z,9.28
2022-12-25T09:00:44.981Z,9.40
2022-12-25T09:03:29.614Z,9.46
2022-12-25T09:06:14.324Z,9.54
2022-12-25T09:08:59.255Z,9.72
2022-12-25T09:11:44.009Z,9.84
2022-12-25T09:14:28.636Z,9.83
2022-12-25T09:17:13.401Z,9.89
2022-12-25T09:19:58.227Z,9.94
2022-12-25T09:22:43.000Z,10.07
2022-12-25T09:25:27.805Z,10.12
2022-12-25T09:28:12.405Z,10.10
2022-12-25T09:30:57.325Z,10.09
2022-12-25T09:33:42.541Z,10.10
2022-12-25T09:36:27.364Z,10.05
2022-12-25T09:39:12.166Z,10.09
2022-12-25T09:41:56.947Z,10.13
2022-12-25T09:44:41.721Z,10.25
2022-12-25T09:47:26.506Z,10.34
2022-12-25T09:50:11.398Z,10.49
2022-12-25T09:52:56.097Z,10.61
2022-12-25T09:55:40.915Z,10.79
2022-12-25T09:58:25.713Z,11.01
2022-12-25T10:01:10.484Z,11.11
2022-12-25T10:03:55.171Z,11.12
2022-12-25T10:06:39.944Z,11.07
2022-12-25T10:09:24.673Z,11.09
2022-12-25T10:12:09.547Z,11.09
2022-12-25T10:14:54.389Z,11.15
2022-12-25T10:17:39.060Z,11.24
2022-12-25T10:20:23.746Z,11.34
2022-12-25T10:23:08.454Z,11.41
2022-12-25T10:25:53.390Z,11.41
2022-12-25T10:28:37.950Z,11.48
2022-12-25T10:31:22.848Z,11.57
2022-12-25T10:34:07.968Z,11.65
2022-12-25T10:36:52.691Z,11.75
2022-12-25T10:39:40.999Z,11.68
2022-12-25T10:42:30.747Z,11.69
2022-12-25T10:45:15.545Z,11.79
2022-12-25T10:48:06.657Z,11.80
2022-12-25T10:50:52.320Z,11.96
2022-12-25T10:53:36.979Z,11.97
2022-12-25T10:56:21.931Z,11.97
2022-12-25T10:59:06.697Z,12.19
2022-12-25T11:01:55.192Z,12.19
2022-12-25T11:04:40.890Z,12.06
2022-12-25T11:07:25.581Z,12.09
2022-12-25T11:10:10.515Z,12.12
2022-12-25T11:12:55.255Z,12.08
2022-12-25T11:15:40.027Z,12.05
2022-12-25T11:18:25.451Z,12.08
2022-12-25T11:21:10.251Z,12.10
2022-12-25T11:23:55.232Z,12.12
2022-12-25T11:26:39.851Z,12.09
2022-12-25T11:29:24.536Z,11.93
2022-12-25T11:32:09.313Z,11.96
2022-12-25T11:34:53.892Z,12.21
2022-12-25T11:37:38.634Z,12.52
2022-12-25T11:40:23.353Z,12.62
2022-12-25T11:43:08.513Z,12.65
2022-12-25T11:45:53.406Z,12.77
2022-12-25T11:48:38.209Z,12.86
2022-12-25T11:51:22.972Z,13.01
2022-12-25T11:54:07.736Z,13.11
2022-12-25T11:56:52.423Z,13.13
2022-12-25T11:59:37.077Z,13.27
2022-12-25T12:02:21.908Z,13.24
2022-12-25T12:05:06.987Z,13.38
2022-12-25T12:07:51.870Z,13.49
2022-12-25T12:10:36.613Z,13.44
2022-12-25T12:13:21.234Z,13.09
2022-12-25T12:16:06.066Z,12.84
2022-12-25T12:18:51.361Z,12.83
2022-12-25T12:21:36.275Z,12.86
2022-12-25T12:24:21.003Z,12.81
2022-12-25T12:27:05.667Z,12.82
2022-12-25T12:29:50.403Z,12.87
2022-12-25T12:32:35.027Z,12.97
2022-12-25T12:35:19.757Z,13.07
2022-12-25T12:38:04.465Z,13.17
2022-12-25T12:40:49.321Z,13.32
2022-12-25T12:43:34.116Z,13.43
2022-12-25T12:46:21.640Z,13.34
2022-12-25T12:49:10.752Z,13.21
2022-12-25T12:51:55.667Z,13.20
2022-12-25T12:54:40.429Z,13.24
2022-12-25T12:57:25.331Z,13.30
2022-12-25T13:00:11.055Z,13.21
2022-12-25T13:02:55.911Z,13.21
2022-12-25T13:05:41.058Z,13.13
2022-12-25T13:08:25.637Z,13.10
2022-12-25T13:11:10.392Z,13.17
2022-12-25T13:13:55.106Z,13.25
2022-12-25T13:16:40.000Z,13.37
2022-12-25T13:19:24.608Z,13.41
2022-12-25T13:22:09.285Z,13.48
2022-12-25T13:24:54.174Z,13.55
2022-12-25T13:27:39.281Z,13.59
2022-12-25T13:30:23.921Z,13.61
2022-12-25T13:33:08.819Z,13.62
2022-12-25T13:35:54.013Z,13.66
2022-12-25T13:38:38.746Z,13.67
2022-12-25T13:41:23.583Z,13.73
2022-12-25T13:44:08.217Z,13.75
2022-12-25T13:46:53.147Z,13.83
2022-12-25T13:49:37.823Z,13.80
2022-12-25T13:52:22.604Z,13.81
2022-12-25T13:55:07.207Z,13.76
2022-12-25T13:57:51.939Z,13.69
2022-12-25T14:00:36.573Z,13.63
2022-12-25T14:03:21.412Z,13.56
2022-12-25T14:06:06.079Z,13.50
2022-12-25T14:08:50.912Z,13.45
2022-12-25T14:11:35.693Z,13.34
2022-12-25T14:14:20.467Z,13.23
2022-12-25T14:17:05.275Z,13.05
2022-12-25T14:19:49.953Z,12.95
2022-12-25T14:22:34.825Z,12.75
2022-12-25T14:25:19.406Z,12.68
2022-12-25T14:28:04.126Z,12.54
2022-12-25T14:30:48.848Z,12.41
2022-12-25T14:33:33.589Z,12.39
2022-12-25T14:36:18.286Z,12.35
2022-12-25T14:39:03.096Z,12.32
2022-12-25T14:41:47.770Z,12.28
2022-12-25T14:44:32.532Z,12.24
2022-12-25T14:47:17.233Z,12.19
2022-12-25T14:50:01.949Z,12.14
2022-12-25T14:52:46.811Z,12.03
2022-12-25T14:55:31.889Z,12.06
2022-12-25T14:58:16.734Z,12.01
2022-12-25T15:01:01.452Z,11.98
2022-12-25T15:03:46.194Z,11.90
2022-12-25T15:06:30.983Z,11.82
2022-12-25T15:09:15.735Z,11.78
2022-12-25T15:12:00.475Z,11.71
2022-12-25T15:14:45.148Z,11.58
2022-12-25T15:17:30.024Z,11.50
2022-12-25T15:20:14.697Z,11.47
2022-12-25T15:23:18.948Z,11.42
2022-12-25T15:26:04.422Z,11.43
2022-12-25T15:28:49.147Z,11.45
2022-12-25T15:31:34.172Z,11.35
2022-12-25T15:34:19.366Z,11.31
2022-12-25T15:37:04.283Z,11.25
2022-12-25T15:39:49.033Z,11.26
2022-12-25T15:42:33.930Z,11.26
2022-12-25T15:45:18.697Z,11.26
2022-12-25T15:48:03.622Z,11.26
2022-12-25T15:50:48.177Z,11.25
2022-12-25T15:53:32.955Z,11.20
2022-12-25T15:56:17.705Z,11.13
2022-12-25T15:59:02.278Z,11.03
2022-12-25T16:01:47.172Z,11.04
2022-12-25T16:04:32.324Z,11.04
2022-12-25T16:07:17.242Z,10.99
2022-12-25T16:10:02.177Z,11.01
2022-12-25T16:12:47.351Z,10.97
2022-12-25T16:15:32.158Z,10.97
2022-12-25T16:18:17.320Z,10.87
2022-12-25T16:21:02.015Z,10.82
2022-12-25T16:23:46.709Z,10.76
2022-12-25T16:26:31.443Z,10.73
2022-12-25T16:29:16.568Z,10.73
2022-12-25T16:32:01.449Z,10.74
2022-12-25T16:34:46.106Z,10.68
2022-12-25T16:37:30.885Z,10.68
2022-12-25T16:40:15.652Z,10.68
2022-12-25T16:43:00.435Z,10.63
2022-12-25T16:45:45.188Z,10.56
2022-12-25T16:48:29.922Z,10.56
2022-12-25T16:51:14.809Z,10.47
2022-12-25T16:53:59.507Z,10.50
2022-12-25T16:56:44.261Z,10.48
2022-12-25T16:59:29.158Z,10.46
2022-12-25T17:02:13.995Z,10.40
2022-12-25T17:04:59.125Z,10.38
2022-12-25T17:07:44.992Z,10.39
2022-12-25T17:10:29.795Z,10.39
2022-12-25T17:13:14.550Z,10.35
2022-12-25T17:15:59.388Z,10.36
2022-12-25T17:18:44.171Z,10.31
2022-12-25T17:21:28.978Z,10.24
2022-12-25T17:24:13.755Z,10.15
2022-12-25T17:26:58.447Z,10.11
2022-12-25T17:29:43.260Z,10.18
2022-12-25T17:32:28.161Z,10.15
2022-12-25T17:35:12.843Z,10.13
2022-12-25T17:37:57.637Z,10.09
2022-12-25T17:40:42.496Z,10.15
2022-12-25T17:43:27.387Z,10.18
2022-12-25T17:46:12.387Z,10.18
2022-12-25T17:48:57.686Z,10.12
2022-12-25T17:51:42.572Z,10.16
2022-12-25T17:54:27.301Z,10.16
2022-12-25T17:57:12.187Z,10.15
2022-12-25T17:59:56.849Z,10.13
2022-12-25T18:02:42.503Z,10.10
2022-12-25T18:05:27.518Z,10.10
2022-12-25T18:08:12.287Z,10.07
2022-12-25T18:10:57.114Z,10.01
2022-12-25T18:13:41.753Z,9.99
2022-12-25T18:16:26.745Z,9.98
2022-12-25T18:19:11.711Z,9.93
2022-12-25T18:21:56.440Z,9.92
2022-12-25T18:24:41.078Z,9.92
2022-12-25T18:27:25.843Z,9.88
2022-12-25T18:30:10.636Z,9.87
2022-12-25T18:32:55.414Z,9.98
2022-12-25T18:35:40.206Z,9.92
2022-12-25T18:38:24.953Z,9.86
2022-12-25T18:41:09.798Z,9.86
2022-12-25T18:43:56.155Z,9.86
2022-12-25T18:46:41.293Z,9.91
2022-12-25T18:49:25.974Z,9.90
2022-12-25T18:52:49.405Z,9.86
2022-12-25T18:55:15.753Z,9.91
2022-12-25T18:58:00.355Z,9.87
2022-12-25T19:00:45.244Z,9.89
2022-12-25T19:03:30.505Z,9.90
2022-12-25T19:06:15.321Z,9.85
2022-12-25T19:09:00.298Z,9.79
2022-12-25T19:11:46.743Z,9.79
2022-12-25T19:14:31.980Z,9.79
2022-12-25T19:17:32.822Z,9.81
2022-12-25T19:20:17.849Z,9.77
2022-12-25T19:23:02.594Z,9.79
2022-12-25T19:25:47.454Z,9.75
2022-12-25T19:28:32.364Z,9.75
2022-12-25T19:31:17.152Z,9.75
2022-12-25T19:34:02.020Z,9.78
2022-12-25T19:36:46.634Z,9.68
2022-12-25T19:39:31.423Z,9.78
2022-12-25T19:42:16.211Z,9.84
2022-12-25T19:45:00.949Z,9.79
2022-12-25T19:47:45.728Z,9.75
2022-12-25T19:50:30.863Z,9.67
2022-12-25T19:53:15.711Z,9.62
2022-12-25T19:56:00.554Z,9.63
2022-12-25T19:58:45.432Z,9.59
2022-12-25T20:01:30.286Z,9.63
2022-12-25T20:04:15.665Z,9.62
2022-12-25T20:07:00.316Z,9.52
2022-12-25T20:09:45.147Z,9.61
2022-12-25T20:12:29.855Z,9.55
2022-12-25T20:15:14.558Z,9.54
2022-12-25T20:17:59.289Z,9.54
2022-12-25T20:20:44.135Z,9.56
2022-12-25T20:23:28.926Z,9.51
2022-12-25T20:26:13.718Z,9.50
2022-12-25T20:28:58.582Z,9.49
2022-12-25T20:31:43.321Z,9.44
2022-12-25T20:34:27.953Z,9.37
2022-12-25T20:37:12.618Z,9.31
2022-12-25T20:39:57.428Z,9.37
2022-12-25T20:42:42.111Z,9.38
2022-12-25T20:45:27.010Z,9.29
2022-12-25T20:48:11.617Z,9.20
2022-12-25T20:50:56.579Z,9.25
2022-12-25T20:53:41.338Z,9.18
2022-12-25T20:56:26.029Z,9.17
2022-12-25T20:59:10.725Z,9.05
2022-12-25T21:01:55.717Z,9.07
2022-12-25T21:04:40.939Z,9.03
2022-12-25T21:07:25.614Z,9.03
2022-12-25T21:10:10.283Z,9.00
2022-12-25T21:12:55.072Z,8.99
2022-12-25T21:15:39.809Z,8.97
2022-12-25T21:18:24.619Z,8.96
2022-12-25T21:21:09.384Z,8.89
2022-12-25T21:23:54.087Z,8.88
2022-12-25T21:26:41.817Z,8.87
2022-12-25T21:29:31.112Z,8.73
2022-12-25T21:32:16.020Z,8.71
2022-12-25T21:35:00.780Z,8.78
2022-12-25T21:37:45.696Z,8.77
2022-12-25T21:40:30.331Z,8.74
2022-12-25T21:43:15.114Z,8.65
2022-12-25T21:46:00.007Z,8.63
2022-12-25T21:48:44.725Z,8.68
2022-12-25T21:51:29.488Z,8.68
2022-12-25T21:54:14.374Z,8.63
2022-12-25T21:56:59.165Z,8.52
2022-12-25T21:59:43.855Z,8.47
2022-12-25T22:02:28.756Z,8.49
2022-12-25T22:05:14.019Z,8.57
2022-12-25T22:07:58.766Z,8.61
2022-12-25T22:10:43.467Z,8.61
2022-12-25T22:13:28.375Z,8.62
2022-12-25T22:16:13.111Z,8.64
2022-12-25T22:18:57.923Z,8.63
2022-12-25T22:21:42.685Z,8.63
2022-12-25T22:24:27.453Z,8.58
2022-12-25T22:27:12.175Z,8.51
2022-12-25T22:29:56.989Z,8.49
2022-12-25T22:32:41.886Z,8.44
2022-12-25T22:35:26.602Z,8.38
2022-12-25T22:38:11.330Z,8.25
2022-12-25T22:40:56.032Z,8.20
2022-12-25T22:44:15.271Z,8.23
2022-12-25T22:46:45.893Z,8.18
2022-12-25T22:49:31.112Z,8.16
2022-12-25T22:52:16.039Z,8.04
2022-12-25T22:55:00.745Z,8.07
2022-12-25T22:57:45.519Z,8.03
2022-12-25T23:00:30.214Z,7.93
2022-12-25T23:03:15.076Z,7.88
2022-12-25T23:06:00.351Z,7.88
2022-12-25T23:08:45.081Z,7.89
2022-12-25T23:11:29.854Z,7.86
2022-12-25T23:14:14.529Z,7.88
2022-12-25T23:16:59.266Z,7.87
2022-12-25T23:19:43.934Z,7.89
2022-12-25T23:22:28.851Z,7.78
2022-12-25T23:25:13.991Z,7.76
2022-12-25T23:27:58.700Z,7.73
2022-12-25T23:30:43.541Z,7.65
2022-12-25T23:33:28.360Z,7.65
2022-12-25T23:36:13.218Z,7.70
2022-12-25T23:39:03.090Z,7.58
2022-12-25T23:41:52.292Z,7.64
2022-12-25T23:44:37.048Z,7.69
2022-12-25T23:47:21.805Z,7.70
2022-12-25T23:50:06.594Z,7.62
2022-12-25T23:52:51.489Z,7.64
2022-12-25T23:55:36.347Z,7.70
2022-12-25T23:58:21.203Z,7.71
